Time,TemperatureF,DewpointF,PressureIn,WindDirection,WindDirectionDegrees,WindSpeedMPH,WindSpeedGustMPH,Humidity,HourlyPrecipIn,Conditions,Clouds,dailyrainin,SoftwareType,DateUTC
2013-05-23 00:03:00,33.4,18.1,30.05,SE,144,2.0,2.0,53,0.00,,,0.00,meteohub,2013-05-23 07:03:00,
2013-05-23 00:08:00,33.1,18.3,30.05,SSE,165,0.0,2.0,54,0.00,,,0.00,meteohub,2013-05-23 07:08:00,
2013-05-23 00:13:00,32.7,18.0,30.06,SSE,165,0.0,2.0,54,0.00,,,0.00,meteohub,2013-05-23 07:13:00,
2013-05-23 00:18:00,32.5,17.2,30.05,SE,141,0.0,2.0,53,0.00,,,0.00,meteohub,2013-05-23 07:18:00,
2013-05-23 00:23:00,32.2,17.8,30.05,SSW,196,0.0,2.0,55,0.00,,,0.00,meteohub,2013-05-23 07:23:00,
2013-05-23 00:28:00,32.0,17.6,30.05,SSE,165,0.0,2.0,55,0.00,,,0.00,meteohub,2013-05-23 07:28:00,
2013-05-23 00:33:00,31.8,17.4,30.05,South,184,1.0,2.0,55,0.00,,,0.00,meteohub,2013-05-23 07:33:00,
2013-05-23 00:38:00,31.6,17.2,30.05,SSE,159,0.0,2.0,55,0.00,,,0.00,meteohub,2013-05-23 07:38:00,
2013-05-23 00:44:00,31.6,17.2,30.05,SSE,159,1.0,2.0,55,0.00,,,0.00,meteohub,2013-05-23 07:44:00,
2013-05-23 00:49:00,31.5,17.2,30.05,SSW,199,0.0,2.0,55,0.00,,,0.00,meteohub,2013-05-23 07:49:00,
2013-05-23 00:57:00,31.3,17.1,30.05,South,178,0.0,2.0,55,0.00,,,0.00,meteohub,2013-05-23 07:57:00,
2013-05-23 01:02:00,30.9,17.1,30.05,South,186,0.0,2.0,56,0.00,,,0.00,meteohub,2013-05-23 08:02:00,
2013-05-23 01:07:00,30.7,17.8,30.05,South,176,1.0,1.0,58,0.00,,,0.00,meteohub,2013-05-23 08:07:00,
2013-05-23 01:12:00,30.7,17.8,30.05,SE,141,0.0,2.0,58,0.00,,,0.00,meteohub,2013-05-23 08:12:00,
2013-05-23 01:17:00,30.6,18.0,30.05,South,169,0.0,2.0,59,0.00,,,0.00,meteohub,2013-05-23 08:17:00,
2013-05-23 01:22:00,30.7,18.5,30.05,SE,130,0.0,2.0,60,0.00,,,0.00,meteohub,2013-05-23 08:22:00,
2013-05-23 01:27:00,30.6,17.1,30.05,South,173,1.0,1.0,57,0.00,,,0.00,meteohub,2013-05-23 08:27:00,
2013-05-23 01:32:00,30.6,18.3,30.05,SSE,161,0.0,1.0,60,0.00,,,0.00,meteohub,2013-05-23 08:32:00,
2013-05-23 01:37:00,30.6,18.7,30.05,SSE,167,0.0,1.0,61,0.00,,,0.00,meteohub,2013-05-23 08:37:00,
2013-05-23 01:42:00,30.6,18.0,30.05,SSW,194,0.0,1.0,59,0.00,,,0.00,meteohub,2013-05-23 08:42:00,
2013-05-23 01:47:00,30.4,18.5,30.05,SSW,213,0.0,2.0,61,0.00,,,0.00,meteohub,2013-05-23 08:47:00,
2013-05-23 01:52:00,30.6,18.3,30.05,South,172,0.0,2.0,60,0.00,,,0.00,meteohub,2013-05-23 08:52:00,
2013-05-23 01:57:00,30.6,19.0,30.05,SSW,211,0.0,2.0,62,0.00,,,0.00,meteohub,2013-05-23 08:57:00,
2013-05-23 02:02:00,30.4,18.5,30.05,SW,227,0.0,2.0,61,0.00,,,0.00,meteohub,2013-05-23 09:02:00,
2013-05-23 02:07:00,30.4,18.1,30.05,South,184,0.0,2.0,60,0.00,,,0.00,meteohub,2013-05-23 09:07:00,
2013-05-23 02:12:00,30.4,18.5,30.05,South,172,0.0,1.0,61,0.00,,,0.00,meteohub,2013-05-23 09:12:00,
2013-05-23 02:17:00,30.4,18.1,30.05,South,175,0.0,1.0,60,0.00,,,0.00,meteohub,2013-05-23 09:17:00,
2013-05-23 02:22:00,30.4,18.5,30.05,SSW,207,0.0,1.0,61,0.00,,,0.00,meteohub,2013-05-23 09:22:00,
2013-05-23 02:27:00,30.4,17.8,30.05,SSE,156,1.0,2.0,59,0.00,,,0.00,meteohub,2013-05-23 09:27:00,
2013-05-23 02:32:00,30.0,17.8,30.05,SSW,194,0.0,2.0,60,0.00,,,0.00,meteohub,2013-05-23 09:32:00,
2013-05-23 02:37:00,30.0,17.8,30.05,SSW,194,0.0,2.0,60,0.00,,,0.00,meteohub,2013-05-23 09:37:00,
2013-05-23 02:42:00,30.0,17.4,30.05,SSE,155,0.0,2.0,59,0.00,,,0.00,meteohub,2013-05-23 09:42:00,
2013-05-23 02:47:00,29.8,17.2,30.05,SSE,155,2.0,2.0,59,0.00,,,0.00,meteohub,2013-05-23 09:47:00,
2013-05-23 02:52:00,29.7,17.1,30.05,SSE,160,0.0,2.0,59,0.00,,,0.00,meteohub,2013-05-23 09:52:00,
2013-05-23 02:57:00,29.5,17.2,30.05,SSE,155,1.0,2.0,60,0.00,,,0.00,meteohub,2013-05-23 09:57:00,
2013-05-23 03:02:00,29.3,17.6,30.05,SW,233,0.0,2.0,61,0.00,,,0.00,meteohub,2013-05-23 10:02:00,
2013-05-23 03:07:00,29.1,17.4,30.05,SSE,154,0.0,2.0,61,0.00,,,0.00,meteohub,2013-05-23 10:07:00,
2013-05-23 03:12:00,28.9,17.2,30.05,SSE,157,0.0,2.0,61,0.00,,,0.00,meteohub,2013-05-23 10:12:00,
2013-05-23 03:17:00,28.8,17.4,30.05,South,182,0.0,1.0,62,0.00,,,0.00,meteohub,2013-05-23 10:17:00,
2013-05-23 03:22:00,28.6,17.2,30.05,SE,144,0.0,1.0,62,0.00,,,0.00,meteohub,2013-05-23 10:22:00,
2013-05-23 03:27:00,28.4,17.4,30.05,SSW,213,0.0,2.0,63,0.00,,,0.00,meteohub,2013-05-23 10:27:00,
2013-05-23 03:32:00,28.2,17.6,30.05,SSW,200,0.0,2.0,64,0.00,,,0.00,meteohub,2013-05-23 10:32:00,
2013-05-23 03:37:00,28.2,17.6,30.05,South,178,0.0,2.0,64,0.00,,,0.00,meteohub,2013-05-23 10:37:00,
2013-05-23 03:42:00,28.2,17.6,30.05,SSE,163,0.0,1.0,64,0.00,,,0.00,meteohub,2013-05-23 10:42:00,
2013-05-23 03:47:00,28.2,17.6,30.05,SSE,161,0.0,1.0,64,0.00,,,0.00,meteohub,2013-05-23 10:47:00,
2013-05-23 03:52:00,28.2,17.6,30.05,South,190,0.0,0.0,64,0.00,,,0.00,meteohub,2013-05-23 10:52:00,
2013-05-23 03:57:00,28.6,18.0,30.05,SSW,208,0.0,0.0,64,0.00,,,0.00,meteohub,2013-05-23 10:57:00,
2013-05-23 04:02:00,28.6,18.0,30.05,SSW,202,0.0,1.0,64,0.00,,,0.00,meteohub,2013-05-23 11:02:00,
2013-05-23 04:07:00,28.8,17.8,30.06,SSW,199,0.0,1.0,63,0.00,,,0.00,meteohub,2013-05-23 11:07:00,
2013-05-23 04:12:00,28.9,18.0,30.06,SSW,195,0.0,1.0,63,0.00,,,0.00,meteohub,2013-05-23 11:12:00,
2013-05-23 04:17:00,28.9,18.0,30.06,SSW,199,0.0,1.0,63,0.00,,,0.00,meteohub,2013-05-23 11:17:00,
2013-05-23 04:22:00,28.8,17.8,30.06,SSE,161,0.0,1.0,63,0.00,,,0.00,meteohub,2013-05-23 11:22:00,
2013-05-23 04:27:00,28.8,17.8,30.06,SSE,167,0.0,1.0,63,0.00,,,0.00,meteohub,2013-05-23 11:27:00,
2013-05-23 04:32:00,28.8,17.8,30.06,SSE,155,0.0,1.0,63,0.00,,,0.00,meteohub,2013-05-23 11:32:00,
2013-05-23 04:37:00,28.8,17.4,30.06,SSE,161,0.0,1.0,62,0.00,,,0.00,meteohub,2013-05-23 11:37:00,
2013-05-23 04:42:00,28.8,17.4,30.06,SSE,167,0.0,1.0,62,0.00,,,0.00,meteohub,2013-05-23 11:42:00,
2013-05-23 04:47:00,28.6,17.2,30.06,SSW,203,0.0,1.0,62,0.00,,,0.00,meteohub,2013-05-23 11:47:00,
2013-05-23 04:52:00,28.6,17.6,30.06,SW,215,0.0,1.0,63,0.00,,,0.00,meteohub,2013-05-23 11:52:00,
2013-05-23 04:57:00,28.6,17.6,30.06,SSE,163,0.0,1.0,63,0.00,,,0.00,meteohub,2013-05-23 11:57:00,
2013-05-23 05:03:00,28.8,17.8,30.06,SSE,153,1.0,1.0,63,0.00,,,0.00,meteohub,2013-05-23 12:03:00,
2013-05-23 05:08:00,28.8,17.8,30.06,SSE,151,0.0,1.0,63,0.00,,,0.00,meteohub,2013-05-23 12:08:00,
2013-05-23 05:13:00,29.1,18.1,30.06,SSE,166,0.0,2.0,63,0.00,,,0.00,meteohub,2013-05-23 12:13:00,
2013-05-23 05:18:00,29.5,18.5,30.06,ESE,117,0.0,2.0,63,0.00,,,0.00,meteohub,2013-05-23 12:18:00,
2013-05-23 05:23:00,29.8,18.0,30.07,ESE,110,0.0,1.0,61,0.00,,,0.00,meteohub,2013-05-23 12:23:00,
2013-05-23 05:28:00,30.0,18.1,30.07,South,173,0.0,1.0,61,0.00,,,0.00,meteohub,2013-05-23 12:28:00,
2013-05-23 05:33:00,30.0,18.1,30.07,South,176,0.0,1.0,61,0.00,,,0.00,meteohub,2013-05-23 12:33:00,
2013-05-23 05:38:00,29.7,18.3,30.08,SSW,198,0.0,1.0,62,0.00,,,0.00,meteohub,2013-05-23 12:38:00,
2013-05-23 05:43:00,29.5,18.1,30.08,SSW,202,0.0,0.0,62,0.00,,,0.00,meteohub,2013-05-23 12:43:00,
2013-05-23 05:48:00,29.3,18.0,30.08,SSE,148,0.0,0.0,62,0.00,,,0.00,meteohub,2013-05-23 12:48:00,
2013-05-23 05:53:00,29.1,18.1,30.08,South,175,0.0,1.0,63,0.00,,,0.00,meteohub,2013-05-23 12:53:00,
2013-05-23 05:58:00,29.1,18.1,30.08,ESE,107,0.0,1.0,63,0.00,,,0.00,meteohub,2013-05-23 12:58:00,
2013-05-23 06:03:00,29.3,18.3,30.08,South,176,0.0,1.0,63,0.00,,,0.00,meteohub,2013-05-23 13:03:00,
2013-05-23 06:08:00,30.6,19.0,30.08,SSE,161,0.0,1.0,62,0.00,,,0.00,meteohub,2013-05-23 13:08:00,
2013-05-23 06:13:00,32.2,19.4,30.08,SSE,162,0.0,1.0,59,0.00,,,0.00,meteohub,2013-05-23 13:13:00,
2013-05-23 06:18:00,33.8,19.8,30.08,SSE,161,0.0,0.0,56,0.00,,,0.00,meteohub,2013-05-23 13:18:00,
2013-05-23 06:23:00,34.9,19.9,30.09,SSE,152,0.0,0.0,54,0.00,,,0.00,meteohub,2013-05-23 13:23:00,
2013-05-23 06:28:00,35.4,19.9,30.09,SSE,157,0.0,1.0,53,0.00,,,0.00,meteohub,2013-05-23 13:28:00,
2013-05-23 06:33:00,36.5,20.5,30.09,SE,138,0.0,1.0,52,0.00,,,0.00,meteohub,2013-05-23 13:33:00,
2013-05-23 06:38:00,36.9,19.9,30.09,SE,138,0.0,1.0,50,0.00,,,0.00,meteohub,2013-05-23 13:38:00,
2013-05-23 06:43:00,36.9,19.4,30.09,ESE,107,0.0,1.0,49,0.00,,,0.00,meteohub,2013-05-23 13:43:00,
2013-05-23 06:48:00,36.9,19.9,30.09,ESE,106,0.0,1.0,50,0.00,,,0.00,meteohub,2013-05-23 13:48:00,
2013-05-23 06:53:00,37.8,20.8,30.09,ESE,106,0.0,1.0,50,0.00,,,0.00,meteohub,2013-05-23 13:53:00,
2013-05-23 06:58:00,37.8,20.8,30.09,ESE,107,0.0,1.0,50,0.00,,,0.00,meteohub,2013-05-23 13:58:00,
2013-05-23 07:03:00,38.5,19.9,30.09,SSE,161,0.0,1.0,47,0.00,,,0.00,meteohub,2013-05-23 14:03:00,
2013-05-23 07:08:00,38.8,20.8,30.09,ESE,103,0.0,1.0,48,0.00,,,0.00,meteohub,2013-05-23 14:08:00,
2013-05-23 07:13:00,39.4,20.3,30.09,South,172,0.0,1.0,46,0.00,,,0.00,meteohub,2013-05-23 14:13:00,
2013-05-23 07:18:00,40.5,21.7,30.09,East,94,0.0,1.0,47,0.00,,,0.00,meteohub,2013-05-23 14:18:00,
2013-05-23 07:23:00,40.6,21.0,30.10,East,96,0.0,1.0,45,0.00,,,0.00,meteohub,2013-05-23 14:23:00,
2013-05-23 07:28:00,41.2,20.8,30.10,NNE,16,0.0,1.0,44,0.00,,,0.00,meteohub,2013-05-23 14:28:00,
2013-05-23 07:33:00,41.5,20.7,30.10,SSW,211,1.0,1.0,43,0.00,,,0.00,meteohub,2013-05-23 14:33:00,
2013-05-23 07:38:00,41.9,19.9,30.10,ESE,103,0.0,2.0,41,0.00,,,0.00,meteohub,2013-05-23 14:38:00,
2013-05-23 07:43:00,42.3,19.6,30.10,South,191,0.0,4.0,40,0.00,,,0.00,meteohub,2013-05-23 14:43:00,
2013-05-23 07:48:00,43.2,19.2,30.10,ESE,115,0.0,4.0,38,0.00,,,0.00,meteohub,2013-05-23 14:48:00,
2013-05-23 07:53:00,43.7,19.8,30.11,West,267,0.0,4.0,38,0.00,,,0.00,meteohub,2013-05-23 14:53:00,
2013-05-23 07:58:00,43.3,19.4,30.11,SW,223,0.0,3.0,38,0.00,,,0.00,meteohub,2013-05-23 14:58:00,
2013-05-23 08:03:00,42.4,18.0,30.11,NNE,30,2.0,3.0,37,0.00,,,0.00,meteohub,2013-05-23 15:03:00,
2013-05-23 08:08:00,42.1,18.3,30.11,East,98,7.0,7.0,38,0.00,,,0.00,meteohub,2013-05-23 15:08:00,
2013-05-23 08:13:00,42.1,18.9,30.12,SSW,211,0.0,5.0,39,0.00,,,0.00,meteohub,2013-05-23 15:13:00,
2013-05-23 08:18:00,42.3,19.0,30.12,SE,146,1.0,7.0,39,0.00,,,0.00,meteohub,2013-05-23 15:18:00,
2013-05-23 08:23:00,42.4,17.4,30.12,ESE,115,0.0,7.0,36,0.00,,,0.00,meteohub,2013-05-23 15:23:00,
2013-05-23 08:28:00,42.4,19.8,30.12,West,265,0.0,6.0,40,0.00,,,0.00,meteohub,2013-05-23 15:28:00,
2013-05-23 08:34:00,42.4,18.7,30.13,WNW,301,1.0,4.0,38,0.00,,,0.00,meteohub,2013-05-23 15:34:00,
2013-05-23 08:39:00,42.4,18.0,30.13,SW,219,0.0,4.0,37,0.00,,,0.00,meteohub,2013-05-23 15:39:00,
2013-05-23 08:44:00,42.4,19.2,30.13,SE,135,0.0,6.0,39,0.00,,,0.00,meteohub,2013-05-23 15:44:00,
2013-05-23 08:49:00,42.4,18.7,30.13,SE,137,2.0,6.0,38,0.00,,,0.00,meteohub,2013-05-23 15:49:00,
2013-05-23 08:54:00,42.1,18.3,30.13,NW,307,0.0,6.0,38,0.00,,,0.00,meteohub,2013-05-23 15:54:00,
2013-05-23 08:59:00,42.4,18.0,30.13,ESE,103,1.0,6.0,37,0.00,,,0.00,meteohub,2013-05-23 15:59:00,
2013-05-23 09:04:00,43.0,17.2,30.13,SW,214,0.0,6.0,35,0.00,,,0.00,meteohub,2013-05-23 16:04:00,
2013-05-23 09:09:00,43.5,17.1,30.14,South,188,1.0,5.0,34,0.00,,,0.00,meteohub,2013-05-23 16:09:00,
2013-05-23 09:14:00,43.5,17.6,30.14,NW,314,2.0,5.0,35,0.00,,,0.00,meteohub,2013-05-23 16:14:00,
2013-05-23 09:19:00,43.5,17.6,30.13,SSE,164,0.0,5.0,35,0.00,,,0.00,meteohub,2013-05-23 16:19:00,
2013-05-23 09:24:00,44.2,16.2,30.13,SSW,203,1.0,5.0,32,0.00,,,0.00,meteohub,2013-05-23 16:24:00,
2013-05-23 09:29:00,45.0,18.3,30.14,SW,217,2.0,5.0,34,0.00,,,0.00,meteohub,2013-05-23 16:29:00,
2013-05-23 09:34:00,45.1,21.0,30.13,SSW,202,1.0,4.0,38,0.00,,,0.00,meteohub,2013-05-23 16:34:00,
2013-05-23 09:39:00,45.1,16.3,30.13,SSE,154,0.0,6.0,31,0.00,,,0.00,meteohub,2013-05-23 16:39:00,
2013-05-23 09:44:00,46.0,19.2,30.13,WSW,238,0.0,6.0,34,0.00,,,0.00,meteohub,2013-05-23 16:44:00,
2013-05-23 09:49:00,46.4,15.1,30.14,NE,35,2.0,6.0,28,0.00,,,0.00,meteohub,2013-05-23 16:49:00,
2013-05-23 09:54:00,45.9,13.8,30.14,SSW,198,6.0,6.0,27,0.00,,,0.00,meteohub,2013-05-23 16:54:00,
2013-05-23 09:59:00,46.0,13.1,30.14,SSW,200,3.0,8.0,26,0.00,,,0.00,meteohub,2013-05-23 16:59:00,
2013-05-23 10:04:00,46.4,15.1,30.14,SSW,196,1.0,8.0,28,0.00,,,0.00,meteohub,2013-05-23 17:04:00,
2013-05-23 10:09:00,46.8,17.8,30.14,ENE,66,2.0,8.0,31,0.00,,,0.00,meteohub,2013-05-23 17:09:00,
2013-05-23 10:14:00,46.6,16.9,30.14,ESE,111,0.0,7.0,30,0.00,,,0.00,meteohub,2013-05-23 17:14:00,
2013-05-23 10:19:00,47.3,15.8,30.14,SSE,161,1.0,7.0,28,0.00,,,0.00,meteohub,2013-05-23 17:19:00,
2013-05-23 10:24:00,48.0,18.9,30.14,WNW,288,3.0,7.0,31,0.00,,,0.00,meteohub,2013-05-23 17:24:00,
2013-05-23 10:29:00,48.4,19.0,30.14,SW,225,1.0,7.0,31,0.00,,,0.00,meteohub,2013-05-23 17:29:00,
2013-05-23 10:34:00,48.4,19.9,30.14,SSW,209,2.0,4.0,32,0.00,,,0.00,meteohub,2013-05-23 17:34:00,
2013-05-23 10:39:00,48.4,17.6,30.14,South,183,5.0,5.0,29,0.00,,,0.00,meteohub,2013-05-23 17:39:00,
2013-05-23 10:44:00,48.6,16.2,30.14,East,90,1.0,4.0,27,0.00,,,0.00,meteohub,2013-05-23 17:44:00,
2013-05-23 10:49:00,48.6,16.9,30.14,SSW,210,1.0,5.0,28,0.00,,,0.00,meteohub,2013-05-23 17:49:00,
2013-05-23 10:54:00,48.9,17.2,30.15,SSW,207,0.0,5.0,28,0.00,,,0.00,meteohub,2013-05-23 17:54:00,
2013-05-23 10:59:00,49.5,16.9,30.15,SSW,196,3.0,4.0,27,0.00,,,0.00,meteohub,2013-05-23 17:59:00,
2013-05-23 11:04:00,49.8,16.3,30.14,WNW,286,2.0,5.0,26,0.00,,,0.00,meteohub,2013-05-23 18:04:00,
2013-05-23 11:09:00,49.5,16.9,30.15,WNW,291,1.0,5.0,27,0.00,,,0.00,meteohub,2013-05-23 18:09:00,
2013-05-23 11:14:00,49.3,14.9,30.15,ESE,103,2.0,6.0,25,0.00,,,0.00,meteohub,2013-05-23 18:14:00,
2013-05-23 11:20:00,49.3,15.8,30.15,West,280,2.0,6.0,26,0.00,,,0.00,meteohub,2013-05-23 18:20:00,
2013-05-23 11:25:00,48.9,14.5,30.16,NE,49,1.0,7.0,25,0.00,,,0.00,meteohub,2013-05-23 18:25:00,
2013-05-23 11:30:00,49.3,14.9,30.16,West,277,0.0,7.0,25,0.00,,,0.00,meteohub,2013-05-23 18:30:00,
2013-05-23 11:35:00,49.5,17.8,30.16,South,179,0.0,7.0,28,0.00,,,0.00,meteohub,2013-05-23 18:35:00,
2013-05-23 11:40:00,49.8,17.2,30.16,SSW,206,1.0,6.0,27,0.00,,,0.00,meteohub,2013-05-23 18:40:00,
2013-05-23 11:45:00,50.2,18.3,30.16,West,268,2.0,4.0,28,0.00,,,0.00,meteohub,2013-05-23 18:45:00,
2013-05-23 11:50:00,50.2,16.5,30.16,SSW,212,2.0,4.0,26,0.00,,,0.00,meteohub,2013-05-23 18:50:00,
2013-05-23 11:55:00,50.2,18.3,30.16,WNW,295,1.0,4.0,28,0.00,,,0.00,meteohub,2013-05-23 18:55:00,
2013-05-23 12:00:00,49.6,19.4,30.16,SSW,192,0.0,3.0,30,0.00,,,0.00,meteohub,2013-05-23 19:00:00,
2013-05-23 12:05:00,49.6,21.0,30.17,WSW,240,1.0,8.0,32,0.00,,,0.00,meteohub,2013-05-23 19:05:00,
2013-05-23 12:10:00,49.8,17.2,30.17,ESE,105,0.0,8.0,27,0.00,,,0.00,meteohub,2013-05-23 19:10:00,
2013-05-23 12:15:00,50.2,16.5,30.17,NW,323,4.0,7.0,26,0.00,,,0.00,meteohub,2013-05-23 19:15:00,
2013-05-23 12:20:00,49.6,17.8,30.17,SSE,165,0.0,7.0,28,0.00,,,0.00,meteohub,2013-05-23 19:20:00,
2013-05-23 12:25:00,49.6,16.2,30.17,NNE,31,3.0,6.0,26,0.00,,,0.00,meteohub,2013-05-23 19:25:00,
2013-05-23 12:30:00,50.2,17.4,30.17,WSW,250,1.0,6.0,27,0.00,,,0.00,meteohub,2013-05-23 19:30:00,
2013-05-23 12:35:00,50.7,20.5,30.17,SW,221,0.0,5.0,30,0.00,,,0.00,meteohub,2013-05-23 19:35:00,
2013-05-23 12:40:00,51.1,19.0,30.17,ESE,107,3.0,7.0,28,0.00,,,0.00,meteohub,2013-05-23 19:40:00,
2013-05-23 12:45:00,51.3,21.6,30.17,West,263,1.0,7.0,31,0.00,,,0.00,meteohub,2013-05-23 19:45:00,
2013-05-23 12:50:00,51.3,20.8,30.17,North,350,4.0,5.0,30,0.00,,,0.00,meteohub,2013-05-23 19:50:00,
2013-05-23 12:55:00,51.3,20.8,30.18,SW,221,1.0,4.0,30,0.00,,,0.00,meteohub,2013-05-23 19:55:00,
2013-05-23 13:00:00,51.3,20.8,30.18,West,259,0.0,4.0,30,0.00,,,0.00,meteohub,2013-05-23 20:00:00,
2013-05-23 13:05:00,51.1,23.0,30.18,SSW,207,0.0,5.0,33,0.00,,,0.00,meteohub,2013-05-23 20:05:00,
2013-05-23 13:10:00,51.1,23.7,30.18,WSW,244,0.0,5.0,34,0.00,,,0.00,meteohub,2013-05-23 20:10:00,
2013-05-23 13:16:00,51.4,25.3,30.18,WSW,252,0.0,5.0,36,0.00,,,0.00,meteohub,2013-05-23 20:16:00,
2013-05-23 13:21:00,51.6,22.6,30.19,SW,218,0.0,5.0,32,0.00,,,0.00,meteohub,2013-05-23 20:21:00,
2013-05-23 13:26:00,51.8,23.5,30.19,SSW,202,0.0,3.0,33,0.00,,,0.00,meteohub,2013-05-23 20:26:00,
2013-05-23 13:31:00,51.4,26.6,30.19,West,279,1.0,3.0,38,0.00,,,0.00,meteohub,2013-05-23 20:31:00,
2013-05-23 13:36:00,51.6,24.1,30.19,SSW,203,1.0,4.0,34,0.00,,,0.00,meteohub,2013-05-23 20:36:00,
2013-05-23 13:41:00,52.2,24.6,30.19,WNW,288,1.0,4.0,34,0.00,,,0.00,meteohub,2013-05-23 20:41:00,
2013-05-23 13:46:00,51.8,21.4,30.19,WNW,290,1.0,4.0,30,0.00,,,0.00,meteohub,2013-05-23 20:46:00,
2013-05-23 13:51:00,52.0,24.4,30.19,WNW,292,0.0,3.0,34,0.00,,,0.00,meteohub,2013-05-23 20:51:00,
2013-05-23 13:56:00,51.6,21.9,30.19,WNW,288,0.0,2.0,31,0.00,,,0.00,meteohub,2013-05-23 20:56:00,
2013-05-23 14:01:00,51.1,23.0,30.19,WSW,253,0.0,2.0,33,0.00,,,0.00,meteohub,2013-05-23 21:01:00,
2013-05-23 14:06:00,49.3,22.1,30.19,NW,317,5.0,11.0,34,0.00,,,0.00,meteohub,2013-05-23 21:06:00,
2013-05-23 14:11:00,48.7,23.5,30.19,West,279,0.0,12.0,37,0.00,,,0.00,meteohub,2013-05-23 21:11:00,
2013-05-23 14:16:00,50.2,22.1,30.20,SSW,209,1.0,12.0,33,0.00,,,0.00,meteohub,2013-05-23 21:16:00,
2013-05-23 14:21:00,51.3,25.9,30.20,WSW,252,1.0,12.0,37,0.00,,,0.00,meteohub,2013-05-23 21:21:00,
2013-05-23 14:26:00,51.6,24.1,30.20,WNW,286,0.0,2.0,34,0.00,,,0.00,meteohub,2013-05-23 21:26:00,
2013-05-23 14:31:00,50.5,24.6,30.20,NNW,333,1.0,6.0,36,0.00,,,0.00,meteohub,2013-05-23 21:31:00,
2013-05-23 14:36:00,50.5,25.2,30.20,SSW,213,0.0,11.0,37,0.00,,,0.00,meteohub,2013-05-23 21:36:00,
2013-05-23 14:41:00,51.6,24.8,30.20,WNW,286,0.0,11.0,35,0.00,,,0.00,meteohub,2013-05-23 21:41:00,
2013-05-23 14:46:00,51.4,24.1,30.21,WNW,283,1.0,11.0,34,0.00,,,0.00,meteohub,2013-05-23 21:46:00,
2013-05-23 14:51:00,51.3,25.9,30.21,West,279,1.0,2.0,37,0.00,,,0.00,meteohub,2013-05-23 21:51:00,
2013-05-23 14:56:00,51.4,25.3,30.21,SW,214,0.0,2.0,36,0.00,,,0.00,meteohub,2013-05-23 21:56:00,
2013-05-23 15:01:00,52.7,26.4,30.22,SW,227,2.0,2.0,36,0.00,,,0.00,meteohub,2013-05-23 22:01:00,
2013-05-23 15:06:00,53.2,27.7,30.22,SSW,201,0.0,4.0,37,0.00,,,0.00,meteohub,2013-05-23 22:06:00,
2013-05-23 15:11:00,53.8,26.8,30.22,SW,218,1.0,4.0,35,0.00,,,0.00,meteohub,2013-05-23 22:11:00,
2013-05-23 15:16:00,53.8,26.8,30.22,SSW,194,1.0,4.0,35,0.00,,,0.00,meteohub,2013-05-23 22:16:00,
2013-05-23 15:21:00,53.8,27.5,30.22,WSW,251,0.0,4.0,36,0.00,,,0.00,meteohub,2013-05-23 22:21:00,
2013-05-23 15:26:00,54.0,27.7,30.22,WSW,254,0.0,4.0,36,0.00,,,0.00,meteohub,2013-05-23 22:26:00,
2013-05-23 15:31:00,54.3,27.3,30.22,SW,227,0.0,5.0,35,0.00,,,0.00,meteohub,2013-05-23 22:31:00,
2013-05-23 15:36:00,54.5,28.0,30.22,SW,229,0.0,5.0,36,0.00,,,0.00,meteohub,2013-05-23 22:36:00,
2013-05-23 15:41:00,54.7,28.2,30.22,SW,225,1.0,5.0,36,0.00,,,0.00,meteohub,2013-05-23 22:41:00,
2013-05-23 15:46:00,54.5,27.3,30.22,SW,223,0.0,4.0,35,0.00,,,0.00,meteohub,2013-05-23 22:46:00,
2013-05-23 15:51:00,54.3,28.6,30.22,SW,229,1.0,4.0,37,0.00,,,0.00,meteohub,2013-05-23 22:51:00,
2013-05-23 15:56:00,54.3,27.9,30.22,SW,218,0.0,4.0,36,0.00,,,0.00,meteohub,2013-05-23 22:56:00,
2013-05-23 16:01:00,54.1,29.1,30.22,SW,233,1.0,3.0,38,0.00,,,0.00,meteohub,2013-05-23 23:01:00,
2013-05-23 16:06:00,53.4,29.1,30.23,SW,224,1.0,3.0,39,0.00,,,0.00,meteohub,2013-05-23 23:06:00,
2013-05-23 16:11:00,53.8,24.6,30.23,WSW,248,0.0,2.0,32,0.00,,,0.00,meteohub,2013-05-23 23:11:00,
2013-05-23 16:16:00,54.1,27.7,30.23,WSW,244,1.0,2.0,36,0.00,,,0.00,meteohub,2013-05-23 23:16:00,
2013-05-23 16:21:00,54.1,27.7,30.23,WSW,245,1.0,2.0,36,0.00,,,0.00,meteohub,2013-05-23 23:21:00,
2013-05-23 16:26:00,53.4,28.4,30.23,SSW,210,0.0,2.0,38,0.00,,,0.00,meteohub,2013-05-23 23:26:00,
2013-05-23 16:32:00,54.0,28.2,30.23,WSW,249,0.0,2.0,37,0.00,,,0.00,meteohub,2013-05-23 23:32:00,
2013-05-23 16:37:00,53.8,28.8,30.23,SW,227,1.0,2.0,38,0.00,,,0.00,meteohub,2013-05-23 23:37:00,
2013-05-23 16:42:00,54.0,28.9,30.23,SW,214,0.0,2.0,38,0.00,,,0.00,meteohub,2013-05-23 23:42:00,
2013-05-23 16:47:00,54.1,30.4,30.23,NW,317,4.0,4.0,40,0.00,,,0.00,meteohub,2013-05-23 23:47:00,
2013-05-23 16:52:00,53.6,28.0,30.23,WNW,292,0.0,8.0,37,0.00,,,0.00,meteohub,2013-05-23 23:52:00,
2013-05-23 16:57:00,53.8,29.5,30.23,WNW,297,0.0,8.0,39,0.00,,,0.00,meteohub,2013-05-23 23:57:00,
2013-05-23 17:02:00,54.0,28.9,30.23,WSW,249,1.0,8.0,38,0.00,,,0.00,meteohub,2013-05-24 00:02:00,
2013-05-23 17:07:00,54.3,27.3,30.24,SW,233,0.0,2.0,35,0.00,,,0.00,meteohub,2013-05-24 00:07:00,
2013-05-23 17:12:00,55.0,27.9,30.24,SSW,196,0.0,2.0,35,0.00,,,0.00,meteohub,2013-05-24 00:12:00,
2013-05-23 17:17:00,55.6,29.1,30.24,SW,218,0.0,2.0,36,0.00,,,0.00,meteohub,2013-05-24 00:17:00,
2013-05-23 17:22:00,55.6,28.4,30.24,SSW,210,0.0,2.0,35,0.00,,,0.00,meteohub,2013-05-24 00:22:00,
2013-05-23 17:27:00,55.9,30.0,30.24,West,271,0.0,1.0,37,0.00,,,0.00,meteohub,2013-05-24 00:27:00,
2013-05-23 17:32:00,55.9,29.3,30.24,West,266,0.0,1.0,36,0.00,,,0.00,meteohub,2013-05-24 00:32:00,
2013-05-23 17:37:00,55.6,31.1,30.24,WNW,286,0.0,1.0,39,0.00,,,0.00,meteohub,2013-05-24 00:37:00,
2013-05-23 17:42:00,54.9,28.4,30.24,NW,324,7.0,7.0,36,0.00,,,0.00,meteohub,2013-05-24 00:42:00,
2013-05-23 17:47:00,54.1,29.7,30.24,West,279,1.0,9.0,39,0.00,,,0.00,meteohub,2013-05-24 00:47:00,
2013-05-23 17:52:00,54.5,28.8,30.24,WNW,290,0.0,9.0,37,0.00,,,0.00,meteohub,2013-05-24 00:52:00,
2013-05-23 17:57:00,54.1,28.4,30.24,WNW,283,0.0,9.0,37,0.00,,,0.00,meteohub,2013-05-24 00:57:00,
2013-05-23 18:02:00,54.7,28.9,30.24,SW,236,0.0,4.0,37,0.00,,,0.00,meteohub,2013-05-24 01:02:00,
2013-05-23 18:07:00,55.2,31.3,30.24,WNW,291,0.0,4.0,40,0.00,,,0.00,meteohub,2013-05-24 01:07:00,
2013-05-23 18:12:00,55.2,30.7,30.24,West,267,1.0,2.0,39,0.00,,,0.00,meteohub,2013-05-24 01:12:00,
2013-05-23 18:17:00,55.2,30.7,30.24,WNW,284,0.0,2.0,39,0.00,,,0.00,meteohub,2013-05-24 01:17:00,
2013-05-23 18:22:00,55.4,30.9,30.24,WNW,299,0.0,2.0,39,0.00,,,0.00,meteohub,2013-05-24 01:22:00,
2013-05-23 18:27:00,55.0,32.4,30.24,WNW,288,0.0,1.0,42,0.00,,,0.00,meteohub,2013-05-24 01:27:00,
2013-05-23 18:32:00,54.9,29.7,30.24,West,279,0.0,1.0,38,0.00,,,0.00,meteohub,2013-05-24 01:32:00,
2013-05-23 18:37:00,54.7,28.9,30.24,West,281,0.0,1.0,37,0.00,,,0.00,meteohub,2013-05-24 01:37:00,
2013-05-23 18:42:00,54.1,29.7,30.24,NW,315,0.0,1.0,39,0.00,,,0.00,meteohub,2013-05-24 01:42:00,
2013-05-23 18:47:00,53.1,29.3,30.24,NNE,15,0.0,1.0,40,0.00,,,0.00,meteohub,2013-05-24 01:47:00,
2013-05-23 18:52:00,52.2,29.8,30.24,NW,310,0.0,1.0,42,0.00,,,0.00,meteohub,2013-05-24 01:52:00,
2013-05-23 18:57:00,50.4,31.5,30.24,NW,309,8.0,8.0,48,0.00,,,0.00,meteohub,2013-05-24 01:57:00,
2013-05-23 19:02:00,49.1,31.3,30.24,NW,304,7.0,10.0,50,0.00,,,0.00,meteohub,2013-05-24 02:02:00,
2013-05-23 19:07:00,48.6,29.3,30.25,NW,321,7.0,11.0,47,0.00,,,0.00,meteohub,2013-05-24 02:07:00,
2013-05-23 19:12:00,48.2,30.4,30.25,NW,321,10.0,11.0,50,0.00,,,0.00,meteohub,2013-05-24 02:12:00,
2013-05-23 19:17:00,47.8,30.6,30.25,NNW,334,8.0,11.0,51,0.00,,,0.00,meteohub,2013-05-24 02:17:00,
2013-05-23 19:22:00,47.7,28.9,30.25,NW,317,9.0,11.0,48,0.00,,,0.00,meteohub,2013-05-24 02:22:00,
2013-05-23 19:27:00,47.7,31.3,30.25,NNW,331,9.0,11.0,53,0.00,,,0.00,meteohub,2013-05-24 02:27:00,
2013-05-23 19:32:00,47.7,31.3,30.25,NW,319,11.0,11.0,53,0.00,,,0.00,meteohub,2013-05-24 02:32:00,
2013-05-23 19:37:00,47.5,30.2,30.25,NW,317,10.0,11.0,51,0.00,,,0.00,meteohub,2013-05-24 02:37:00,
2013-05-23 19:42:00,47.5,31.3,30.25,NW,321,9.0,11.0,53,0.00,,,0.00,meteohub,2013-05-24 02:42:00,
2013-05-23 19:47:00,47.5,30.2,30.25,NW,317,11.0,11.0,51,0.00,,,0.00,meteohub,2013-05-24 02:47:00,
2013-05-23 19:52:00,47.3,29.1,30.25,NW,317,9.0,11.0,49,0.00,,,0.00,meteohub,2013-05-24 02:52:00,
2013-05-23 19:57:00,47.5,32.2,30.25,NW,315,9.0,12.0,55,0.00,,,0.00,meteohub,2013-05-24 02:57:00,
2013-05-23 20:02:00,47.3,31.5,30.26,NW,325,8.0,12.0,54,0.00,,,0.00,meteohub,2013-05-24 03:02:00,
2013-05-23 20:07:00,47.1,29.8,30.26,NW,321,8.0,11.0,51,0.00,,,0.00,meteohub,2013-05-24 03:07:00,
2013-05-23 20:12:00,47.1,29.5,30.26,NW,319,8.0,11.0,50,0.00,,,0.00,meteohub,2013-05-24 03:12:00,
2013-05-23 20:17:00,47.1,28.9,30.26,NW,324,7.0,10.0,49,0.00,,,0.00,meteohub,2013-05-24 03:17:00,
2013-05-23 20:22:00,47.1,29.8,30.27,NW,318,7.0,10.0,51,0.00,,,0.00,meteohub,2013-05-24 03:22:00,
2013-05-23 20:27:00,46.9,28.2,30.27,NW,317,8.0,10.0,48,0.00,,,0.00,meteohub,2013-05-24 03:27:00,
2013-05-23 20:32:00,46.9,29.3,30.27,NW,321,7.0,9.0,50,0.00,,,0.00,meteohub,2013-05-24 03:32:00,
2013-05-23 20:37:00,46.9,27.7,30.27,NNW,333,7.0,9.0,47,0.00,,,0.00,meteohub,2013-05-24 03:37:00,
2013-05-23 20:42:00,46.9,26.2,30.27,NNW,334,7.0,9.0,44,0.00,,,0.00,meteohub,2013-05-24 03:42:00,
2013-05-23 20:47:00,46.8,26.1,30.27,NNW,341,5.0,9.0,44,0.00,,,0.00,meteohub,2013-05-24 03:47:00,
2013-05-23 20:52:00,46.8,28.0,30.27,NNE,31,8.0,8.0,48,0.00,,,0.00,meteohub,2013-05-24 03:52:00,
2013-05-23 20:57:00,46.8,29.1,30.28,NW,318,5.0,8.0,50,0.00,,,0.00,meteohub,2013-05-24 03:57:00,
2013-05-23 21:01:00,46.8,26.6,30.28,NNW,331,4.0,8.0,45,0.00,,,0.00,meteohub,2013-05-24 04:01:00,
2013-05-23 21:02:00,46.8,27.1,30.28,NW,317,3.0,8.0,46,0.00,,,0.00,meteohub,2013-05-24 04:02:00,
2013-05-23 21:07:00,46.6,28.4,30.28,NW,311,3.0,8.0,49,0.00,,,0.00,meteohub,2013-05-24 04:07:00,
2013-05-23 21:12:00,46.4,27.3,30.29,NE,35,0.0,7.0,47,0.00,,,0.00,meteohub,2013-05-24 04:12:00,
2013-05-23 21:17:00,45.3,27.3,30.29,SSE,157,0.0,6.0,49,0.00,,,0.00,meteohub,2013-05-24 04:17:00,
2013-05-23 21:22:00,44.4,27.5,30.30,East,99,0.0,4.0,51,0.00,,,0.00,meteohub,2013-05-24 04:22:00,
2013-05-23 21:27:00,43.9,27.9,30.30,SSW,209,0.0,1.0,53,0.00,,,0.00,meteohub,2013-05-24 04:27:00,
2013-05-23 21:32:00,43.3,27.9,30.30,SSW,210,0.0,1.0,54,0.00,,,0.00,meteohub,2013-05-24 04:32:00,
2013-05-23 21:37:00,42.8,27.7,30.30,SE,132,0.0,1.0,55,0.00,,,0.00,meteohub,2013-05-24 04:37:00,
2013-05-23 21:42:00,42.3,27.7,30.30,SE,128,0.0,1.0,56,0.00,,,0.00,meteohub,2013-05-24 04:42:00,
2013-05-23 21:47:00,41.7,27.7,30.30,SE,128,0.0,1.0,57,0.00,,,0.00,meteohub,2013-05-24 04:47:00,
2013-05-23 21:52:00,41.4,27.7,30.31,SE,128,0.0,1.0,58,0.00,,,0.00,meteohub,2013-05-24 04:52:00,
2013-05-23 21:57:00,41.2,27.9,30.31,SSE,166,0.0,1.0,59,0.00,,,0.00,meteohub,2013-05-24 04:57:00,
2013-05-23 22:02:00,40.8,27.7,30.31,SSW,210,0.0,1.0,59,0.00,,,0.00,meteohub,2013-05-24 05:02:00,
2013-05-23 22:07:00,40.8,27.7,30.31,SE,141,0.0,1.0,59,0.00,,,0.00,meteohub,2013-05-24 05:07:00,
2013-05-23 22:12:00,40.8,27.7,30.31,SE,144,0.0,0.0,59,0.00,,,0.00,meteohub,2013-05-24 05:12:00,
2013-05-23 22:17:00,40.6,27.5,30.32,SSW,194,0.0,1.0,59,0.00,,,0.00,meteohub,2013-05-24 05:17:00,
2013-05-23 22:22:00,40.5,27.7,30.32,South,190,0.0,1.0,60,0.00,,,0.00,meteohub,2013-05-24 05:22:00,
2013-05-23 22:27:00,40.5,28.0,30.32,South,169,0.0,1.0,61,0.00,,,0.00,meteohub,2013-05-24 05:27:00,
2013-05-23 22:32:00,40.1,27.7,30.32,SSE,168,0.0,0.0,61,0.00,,,0.00,meteohub,2013-05-24 05:32:00,
2013-05-23 22:37:00,39.7,27.3,30.32,SSE,168,0.0,0.0,61,0.00,,,0.00,meteohub,2013-05-24 05:37:00,
2013-05-23 22:42:00,39.6,27.7,30.32,SE,146,0.0,0.0,62,0.00,,,0.00,meteohub,2013-05-24 05:42:00,
2013-05-23 22:47:00,39.2,27.3,30.31,SE,135,0.0,0.0,62,0.00,,,0.00,meteohub,2013-05-24 05:47:00,
2013-05-23 22:52:00,38.8,27.3,30.32,SSE,148,0.0,0.0,63,0.00,,,0.00,meteohub,2013-05-24 05:52:00,
2013-05-23 22:57:00,38.5,27.0,30.32,SE,144,0.0,0.0,63,0.00,,,0.00,meteohub,2013-05-24 05:57:00,
2013-05-23 23:02:00,38.1,26.2,30.31,ESE,115,0.0,1.0,62,0.00,,,0.00,meteohub,2013-05-24 06:02:00,
2013-05-23 23:07:00,37.8,25.5,30.31,ESE,118,0.0,1.0,61,0.00,,,0.00,meteohub,2013-05-24 06:07:00,
2013-05-23 23:12:00,37.4,25.2,30.31,SSE,153,0.0,1.0,61,0.00,,,0.00,meteohub,2013-05-24 06:12:00,
2013-05-23 23:17:00,37.0,25.2,30.31,SE,132,0.0,1.0,62,0.00,,,0.00,meteohub,2013-05-24 06:17:00,
2013-05-23 23:22:00,36.7,25.0,30.31,SSW,203,0.0,1.0,62,0.00,,,0.00,meteohub,2013-05-24 06:22:00,
2013-05-23 23:27:00,36.7,25.0,30.30,SSE,155,0.0,1.0,62,0.00,,,0.00,meteohub,2013-05-24 06:27:00,
2013-05-23 23:32:00,36.5,24.3,30.30,SE,141,0.0,1.0,61,0.00,,,0.00,meteohub,2013-05-24 06:32:00,
2013-05-23 23:38:00,36.5,24.3,30.30,SSE,161,0.0,1.0,61,0.00,,,0.00,meteohub,2013-05-24 06:38:00,
2013-05-23 23:43:00,36.3,24.6,30.30,SSW,198,0.0,1.0,62,0.00,,,0.00,meteohub,2013-05-24 06:43:00,
2013-05-23 23:48:00,36.3,24.1,30.30,SSE,168,0.0,1.0,61,0.00,,,0.00,meteohub,2013-05-24 06:48:00,
2013-05-23 23:53:00,36.0,23.9,30.29,South,171,0.0,2.0,61,0.00,,,0.00,meteohub,2013-05-24 06:53:00,
2013-05-23 23:58:00,35.8,23.7,30.29,South,183,0.0,2.0,61,0.00,,,0.00,meteohub,2013-05-24 06:58:00,